createdAt,value
2023-05-21T00:00:09.605Z,23.63
2023-05-21T00:01:10.780Z,23.67
2023-05-21T00:02:09.729Z,23.67
2023-05-21T00:03:09.819Z,23.64
2023-05-21T00:04:09.651Z,23.65
2023-05-21T00:05:11.020Z,23.65
2023-05-21T00:06:10.598Z,23.63
2023-05-21T00:07:09.653Z,23.65
2023-05-21T00:08:09.595Z,23.64
2023-05-21T00:09:09.592Z,23.64
2023-05-21T00:10:10.539Z,23.64
2023-05-21T00:11:10.583Z,23.61
2023-05-21T00:12:09.622Z,23.64
2023-05-21T00:13:09.650Z,23.63
2023-05-21T00:14:09.734Z,23.64
2023-05-21T00:15:10.701Z,23.64
2023-05-21T00:16:09.619Z,23.60
2023-05-21T00:17:10.503Z,23.61
2023-05-21T00:18:10.587Z,23.63
2023-05-21T00:19:09.611Z,23.61
2023-05-21T00:20:09.519Z,23.61
2023-05-21T00:21:09.442Z,23.60
2023-05-21T00:22:10.463Z,23.61
2023-05-21T00:23:10.531Z,23.58
2023-05-21T00:24:09.438Z,23.61
2023-05-21T00:25:10.504Z,23.60
2023-05-21T00:26:10.670Z,23.57
2023-05-21T00:27:10.656Z,23.56
2023-05-21T00:28:09.400Z,23.63
2023-05-21T00:29:09.437Z,23.61
2023-05-21T00:30:10.668Z,23.57
2023-05-21T00:31:09.477Z,23.57
2023-05-21T00:32:10.556Z,23.58
2023-05-21T00:33:10.700Z,23.57
2023-05-21T00:34:10.409Z,23.57
2023-05-21T00:35:09.489Z,23.61
2023-05-21T00:36:09.361Z,23.57
2023-05-21T00:37:10.411Z,23.57
2023-05-21T00:38:10.331Z,23.56
2023-05-21T00:39:10.337Z,23.57
2023-05-21T00:40:10.543Z,23.56
2023-05-21T00:41:09.318Z,23.56
2023-05-21T00:42:09.332Z,23.57
2023-05-21T00:43:09.349Z,23.54
2023-05-21T00:44:10.480Z,23.54
2023-05-21T00:45:10.363Z,23.54
2023-05-21T00:46:09.438Z,23.54
2023-05-21T00:47:10.294Z,23.53
2023-05-21T00:48:10.307Z,23.54
2023-05-21T00:49:09.361Z,23.56
2023-05-21T00:50:09.270Z,23.53
2023-05-21T00:51:09.277Z,23.54
2023-05-21T00:52:09.436Z,23.52
2023-05-21T00:53:10.409Z,23.54
2023-05-21T00:54:09.457Z,23.54
2023-05-21T00:55:10.478Z,23.54
2023-05-21T00:56:10.284Z,23.54
2023-05-21T00:57:09.251Z,23.54
2023-05-21T00:58:10.345Z,23.53
2023-05-21T00:59:09.194Z,23.50
2023-05-21T01:00:10.207Z,23.53
2023-05-21T01:01:10.345Z,23.53
2023-05-21T01:02:10.316Z,23.50
2023-05-21T01:03:09.312Z,23.50
2023-05-21T01:04:09.265Z,23.50
2023-05-21T01:05:09.366Z,23.49
2023-05-21T01:06:09.199Z,23.50
2023-05-21T01:07:09.144Z,23.52
2023-05-21T01:08:10.377Z,23.50
2023-05-21T01:09:09.212Z,23.52
2023-05-21T01:10:10.269Z,23.49
2023-05-21T01:11:09.245Z,23.50
2023-05-21T01:12:09.198Z,23.50
2023-05-21T01:13:09.232Z,23.52
2023-05-21T01:14:10.094Z,23.49
2023-05-21T01:15:09.116Z,23.53
2023-05-21T01:16:09.363Z,23.52
2023-05-21T01:17:10.240Z,23.50
2023-05-21T01:18:10.360Z,23.46
2023-05-21T01:19:10.316Z,23.47
2023-05-21T01:20:09.421Z,23.49
2023-05-21T01:21:09.332Z,23.47
2023-05-21T01:22:10.227Z,23.50
2023-05-21T01:23:09.267Z,23.46
2023-05-21T01:24:09.348Z,23.43
2023-05-21T01:25:09.225Z,23.47
2023-05-21T01:26:09.491Z,23.43
2023-05-21T01:27:09.248Z,23.43
2023-05-21T01:28:10.330Z,23.43
2023-05-21T01:29:09.302Z,23.46
2023-05-21T01:30:09.321Z,23.46
2023-05-21T01:31:10.545Z,23.47
2023-05-21T01:32:10.481Z,23.43
2023-05-21T01:33:09.751Z,23.47
2023-05-21T01:34:10.474Z,23.44
2023-05-21T01:35:09.422Z,23.46
2023-05-21T01:36:10.544Z,23.43
2023-05-21T01:37:09.627Z,23.42
2023-05-21T01:38:10.485Z,23.43
2023-05-21T01:39:09.687Z,23.44
2023-05-21T01:40:09.545Z,23.44
2023-05-21T01:41:10.706Z,23.43
2023-05-21T01:42:09.707Z,23.46
2023-05-21T01:43:09.659Z,23.44
2023-05-21T01:44:09.839Z,23.43
2023-05-21T01:45:09.702Z,23.42
2023-05-21T01:46:09.813Z,23.43
2023-05-21T01:47:09.726Z,23.43
2023-05-21T01:48:10.908Z,23.42
2023-05-21T01:49:10.821Z,23.40
2023-05-21T01:50:09.906Z,23.40
2023-05-21T01:51:09.874Z,23.42
2023-05-21T01:52:10.893Z,23.40
2023-05-21T01:53:11.021Z,23.42
2023-05-21T01:54:10.012Z,23.42
2023-05-21T01:55:10.159Z,23.43
2023-05-21T01:56:10.133Z,23.39
2023-05-21T01:57:10.234Z,23.39
2023-05-21T01:58:10.245Z,23.40
2023-05-21T01:59:11.133Z,23.37
2023-05-21T02:00:10.062Z,23.37
2023-05-21T02:01:11.115Z,23.37
2023-05-21T02:02:10.363Z,23.37
2023-05-21T02:03:10.255Z,23.40
2023-05-21T02:04:11.366Z,23.37
2023-05-21T02:05:11.215Z,23.37
2023-05-21T02:06:11.266Z,23.34
2023-05-21T02:07:11.275Z,23.36
2023-05-21T02:08:11.428Z,23.36
2023-05-21T02:09:11.338Z,23.36
2023-05-21T02:10:10.395Z,23.36
2023-05-21T02:11:10.593Z,23.37
2023-05-21T02:12:11.445Z,23.37
2023-05-21T02:13:10.504Z,23.36
2023-05-21T02:14:11.595Z,23.39
2023-05-21T02:15:10.753Z,23.37
2023-05-21T02:16:10.608Z,23.36
2023-05-21T02:17:10.619Z,23.37
2023-05-21T02:18:10.747Z,23.36
2023-05-21T02:19:11.747Z,23.34
2023-05-21T02:20:10.813Z,23.36
2023-05-21T02:21:10.784Z,23.36
2023-05-21T02:22:11.888Z,23.36
2023-05-21T02:23:11.810Z,23.37
2023-05-21T02:24:11.873Z,23.36
2023-05-21T02:25:10.895Z,23.34
2023-05-21T02:26:11.925Z,23.32
2023-05-21T02:27:11.102Z,23.32
2023-05-21T02:28:11.974Z,23.34
2023-05-21T02:29:11.251Z,23.33
2023-05-21T02:30:11.133Z,23.32
2023-05-21T02:31:11.180Z,23.33
2023-05-21T02:32:11.180Z,23.30
2023-05-21T02:33:11.194Z,23.30
2023-05-21T02:34:11.234Z,23.30
2023-05-21T02:35:11.498Z,23.32
2023-05-21T02:36:11.266Z,23.30
2023-05-21T02:37:11.364Z,23.30
2023-05-21T02:38:12.379Z,23.33
2023-05-21T02:39:11.467Z,23.30
2023-05-21T02:40:12.663Z,23.32
2023-05-21T02:41:12.585Z,23.32
2023-05-21T02:42:11.448Z,23.32
2023-05-21T02:43:13.492Z,23.30
2023-05-21T02:44:11.680Z,23.32
2023-05-21T02:45:11.781Z,23.30
2023-05-21T02:46:11.517Z,23.29
2023-05-21T02:47:11.485Z,23.30
2023-05-21T02:48:12.552Z,23.33
2023-05-21T02:49:12.419Z,23.33
2023-05-21T02:50:12.532Z,23.30
2023-05-21T02:51:11.416Z,23.30
2023-05-21T02:52:12.433Z,23.30
2023-05-21T02:53:12.416Z,23.30
2023-05-21T02:54:11.411Z,23.32
2023-05-21T02:55:12.401Z,23.27
2023-05-21T02:56:11.386Z,23.27
2023-05-21T02:57:11.474Z,23.27
2023-05-21T02:58:11.463Z,23.26
2023-05-21T02:59:11.530Z,23.29
2023-05-21T03:00:11.571Z,23.26
2023-05-21T03:01:12.626Z,23.26
2023-05-21T03:02:11.571Z,23.29
2023-05-21T03:03:11.520Z,23.25
2023-05-21T03:04:12.348Z,23.26
2023-05-21T03:05:11.312Z,23.26
2023-05-21T03:06:11.311Z,23.26
2023-05-21T03:07:12.357Z,23.26
2023-05-21T03:08:11.274Z,23.25
2023-05-21T03:09:12.274Z,23.26
2023-05-21T03:10:12.314Z,23.27
2023-05-21T03:11:11.271Z,23.25
2023-05-21T03:12:12.491Z,23.25
2023-05-21T03:13:11.366Z,23.23
2023-05-21T03:14:11.255Z,23.23
2023-05-21T03:15:11.293Z,23.25
2023-05-21T03:16:12.328Z,23.25
2023-05-21T03:17:12.332Z,23.25
2023-05-21T03:18:11.383Z,23.25
2023-05-21T03:19:12.619Z,23.25
2023-05-21T03:20:12.461Z,23.23
2023-05-21T03:21:12.472Z,23.23
2023-05-21T03:22:11.497Z,23.25
2023-05-21T03:23:14.774Z,23.22
2023-05-21T03:24:11.546Z,23.20
2023-05-21T03:25:12.630Z,23.20
2023-05-21T03:26:12.754Z,23.20
2023-05-21T03:27:11.658Z,23.23
2023-05-21T03:28:11.546Z,23.23
2023-05-21T03:29:11.546Z,23.23
2023-05-21T03:30:11.508Z,23.22
2023-05-21T03:31:11.473Z,23.20
2023-05-21T03:32:12.542Z,23.16
2023-05-21T03:33:11.672Z,23.20
2023-05-21T03:34:12.624Z,23.22
2023-05-21T03:35:12.467Z,23.19
2023-05-21T03:36:12.463Z,23.20
2023-05-21T03:37:12.559Z,23.20
2023-05-21T03:38:12.508Z,23.18
2023-05-21T03:39:11.562Z,23.19
2023-05-21T03:40:12.608Z,23.18
2023-05-21T03:41:11.647Z,23.19
2023-05-21T03:42:11.942Z,23.20
2023-05-21T03:43:11.861Z,23.20
2023-05-21T03:44:11.935Z,23.19
2023-05-21T03:45:12.992Z,23.19
2023-05-21T03:46:12.958Z,23.19
2023-05-21T03:47:11.919Z,23.19
2023-05-21T03:48:12.019Z,23.18
2023-05-21T03:49:13.101Z,23.19
2023-05-21T03:50:12.059Z,23.16
2023-05-21T03:51:12.109Z,23.20
2023-05-21T03:52:13.219Z,23.18
2023-05-21T03:53:13.194Z,23.18
2023-05-21T03:54:12.277Z,23.18
2023-05-21T03:55:12.443Z,23.16
2023-05-21T03:56:13.341Z,23.16
2023-05-21T03:57:13.580Z,23.16
2023-05-21T03:58:12.500Z,23.15
2023-05-21T03:59:12.556Z,23.16
2023-05-21T04:00:12.571Z,23.18
2023-05-21T04:01:12.606Z,23.18
2023-05-21T04:02:13.841Z,23.18
2023-05-21T04:03:13.857Z,23.18
2023-05-21T04:04:14.053Z,23.16
2023-05-21T04:05:13.802Z,23.18
2023-05-21T04:06:13.001Z,23.16
2023-05-21T04:07:13.096Z,23.13
2023-05-21T04:08:12.973Z,23.15
2023-05-21T04:09:13.119Z,23.18
2023-05-21T04:10:13.141Z,23.13
2023-05-21T04:11:14.332Z,23.13
2023-05-21T04:12:13.218Z,23.16
2023-05-21T04:13:13.334Z,23.16
2023-05-21T04:14:13.286Z,23.12
2023-05-21T04:15:14.431Z,23.13
2023-05-21T04:16:13.382Z,23.15
2023-05-21T04:17:13.441Z,23.13
2023-05-21T04:18:13.495Z,23.15
2023-05-21T04:19:14.599Z,23.15
2023-05-21T04:20:13.642Z,23.13
2023-05-21T04:21:13.644Z,23.12
2023-05-21T04:22:14.831Z,23.13
2023-05-21T04:23:14.734Z,23.12
2023-05-21T04:24:14.760Z,23.16
2023-05-21T04:25:14.962Z,23.10
2023-05-21T04:26:13.925Z,23.09
2023-05-21T04:27:14.128Z,23.12
2023-05-21T04:28:14.134Z,23.13
2023-05-21T04:29:14.095Z,23.12
2023-05-21T04:30:15.441Z,23.10
2023-05-21T04:31:14.236Z,23.09
2023-05-21T04:32:15.302Z,23.10
2023-05-21T04:33:14.422Z,23.12
2023-05-21T04:34:14.346Z,23.10
2023-05-21T04:35:14.577Z,23.10
2023-05-21T04:36:14.455Z,23.09
2023-05-21T04:37:14.549Z,23.09
2023-05-21T04:38:15.706Z,23.09
2023-05-21T04:39:14.710Z,23.09
2023-05-21T04:40:14.742Z,23.12
2023-05-21T04:41:14.840Z,23.10
2023-05-21T04:42:14.822Z,23.10
2023-05-21T04:43:15.817Z,23.10
2023-05-21T04:44:16.010Z,23.09
2023-05-21T04:45:14.942Z,23.08
2023-05-21T04:46:15.016Z,23.10
2023-05-21T04:47:15.106Z,23.06
2023-05-21T04:48:15.077Z,23.09
2023-05-21T04:49:16.106Z,23.08
2023-05-21T04:50:15.200Z,23.12
2023-05-21T04:51:15.365Z,23.10
2023-05-21T04:52:16.267Z,23.08
2023-05-21T04:53:15.568Z,23.09
2023-05-21T04:54:15.471Z,23.09
2023-05-21T04:55:16.526Z,23.09
2023-05-21T04:56:15.610Z,23.09
2023-05-21T04:57:16.550Z,23.08
2023-05-21T04:58:16.719Z,23.08
2023-05-21T04:59:16.649Z,23.08
2023-05-21T05:00:16.749Z,23.08
2023-05-21T05:01:15.962Z,23.09
2023-05-21T05:02:15.890Z,23.09
2023-05-21T05:03:15.941Z,23.09
2023-05-21T05:04:16.936Z,23.09
2023-05-21T05:05:17.209Z,23.09
2023-05-21T05:06:17.330Z,23.09
2023-05-21T05:07:16.323Z,23.06
2023-05-21T05:08:17.229Z,23.09
2023-05-21T05:09:16.464Z,23.09
2023-05-21T05:10:16.282Z,23.06
2023-05-21T05:11:17.402Z,23.09
2023-05-21T05:12:16.581Z,23.09
2023-05-21T05:13:17.505Z,23.10
2023-05-21T05:14:16.758Z,23.08
2023-05-21T05:15:16.688Z,23.06
2023-05-21T05:16:16.797Z,23.12
2023-05-21T05:17:16.641Z,23.09
2023-05-21T05:18:16.738Z,23.10
2023-05-21T05:19:18.010Z,23.09
2023-05-21T05:20:16.840Z,23.08
2023-05-21T05:21:17.862Z,23.08
2023-05-21T05:22:18.024Z,23.10
2023-05-21T05:23:17.022Z,23.08
2023-05-21T05:24:18.293Z,23.09
2023-05-21T05:25:17.230Z,23.09
2023-05-21T05:26:18.156Z,23.12
2023-05-21T05:27:17.383Z,23.09
2023-05-21T05:28:18.341Z,23.09
2023-05-21T05:29:17.540Z,23.09
2023-05-21T05:30:17.400Z,23.06
2023-05-21T05:31:18.564Z,23.06
2023-05-21T05:32:17.615Z,23.09
2023-05-21T05:33:17.681Z,23.10
2023-05-21T05:34:18.800Z,23.10
2023-05-21T05:35:17.811Z,23.09
2023-05-21T05:36:17.700Z,23.09
2023-05-21T05:37:18.907Z,23.09
2023-05-21T05:38:17.969Z,23.12
2023-05-21T05:39:18.862Z,23.08
2023-05-21T05:40:17.940Z,23.13
2023-05-21T05:41:19.046Z,23.10
2023-05-21T05:42:19.052Z,23.09
2023-05-21T05:43:19.081Z,23.10
2023-05-21T05:44:18.203Z,23.09
2023-05-21T05:45:19.417Z,23.12
2023-05-21T05:46:19.367Z,23.10
2023-05-21T05:47:18.302Z,23.10
2023-05-21T05:48:19.354Z,23.12
2023-05-21T05:49:19.554Z,23.15
2023-05-21T05:50:19.599Z,23.13
2023-05-21T05:51:19.641Z,23.15
2023-05-21T05:52:19.686Z,23.09
2023-05-21T05:53:19.605Z,23.09
2023-05-21T05:54:18.705Z,23.12
2023-05-21T05:55:19.732Z,23.12
2023-05-21T05:56:19.764Z,23.13
2023-05-21T05:57:18.807Z,23.15
2023-05-21T05:58:18.890Z,23.15
2023-05-21T05:59:20.096Z,23.16
2023-05-21T06:00:18.930Z,23.15
2023-05-21T06:01:19.271Z,23.15
2023-05-21T06:02:20.132Z,23.13
2023-05-21T06:03:19.373Z,23.15
2023-05-21T06:04:20.261Z,23.16
2023-05-21T06:05:20.251Z,23.18
2023-05-21T06:06:19.436Z,23.16
2023-05-21T06:07:19.244Z,23.15
2023-05-21T06:08:19.501Z,23.13
2023-05-21T06:09:20.383Z,23.13
2023-05-21T06:10:19.369Z,23.16
2023-05-21T06:11:19.429Z,23.12
2023-05-21T06:12:20.619Z,23.18
2023-05-21T06:13:20.521Z,23.16
2023-05-21T06:14:20.614Z,23.19
2023-05-21T06:15:19.640Z,23.18
2023-05-21T06:16:19.782Z,23.18
2023-05-21T06:17:20.773Z,23.20
2023-05-21T06:18:20.733Z,23.22
2023-05-21T06:19:20.865Z,23.18
2023-05-21T06:20:19.802Z,23.19
2023-05-21T06:21:19.857Z,23.19
2023-05-21T06:22:19.904Z,23.20
2023-05-21T06:23:20.934Z,23.19
2023-05-21T06:24:20.982Z,23.18
2023-05-21T06:25:20.034Z,23.19
2023-05-21T06:26:20.150Z,23.18
2023-05-21T06:27:20.097Z,23.25
2023-05-21T06:28:21.111Z,23.19
2023-05-21T06:29:21.188Z,23.20
2023-05-21T06:30:20.231Z,23.19
2023-05-21T06:31:21.297Z,23.22
2023-05-21T06:32:20.327Z,23.27
2023-05-21T06:33:20.473Z,23.23
2023-05-21T06:34:20.357Z,23.25
2023-05-21T06:35:21.392Z,23.26
2023-05-21T06:36:20.570Z,23.23
2023-05-21T06:37:21.465Z,23.27
2023-05-21T06:38:21.589Z,23.25
2023-05-21T06:39:21.684Z,23.26
2023-05-21T06:40:21.653Z,23.27
2023-05-21T06:41:20.726Z,23.27
2023-05-21T06:42:21.640Z,23.30
2023-05-21T06:43:20.819Z,23.29
2023-05-21T06:44:20.785Z,23.26
2023-05-21T06:45:20.734Z,23.30
2023-05-21T06:46:20.758Z,23.30
2023-05-21T06:47:20.775Z,23.33
2023-05-21T06:48:20.837Z,23.33
2023-05-21T06:49:21.004Z,23.33
2023-05-21T06:50:21.927Z,23.32
2023-05-21T06:51:20.874Z,23.33
2023-05-21T06:52:21.920Z,23.32
2023-05-21T06:53:21.101Z,23.33
2023-05-21T06:54:22.000Z,23.36
2023-05-21T06:55:21.011Z,23.37
2023-05-21T06:56:21.033Z,23.36
2023-05-21T06:57:22.183Z,23.37
2023-05-21T06:58:21.078Z,23.36
2023-05-21T06:59:22.137Z,23.39
2023-05-21T07:00:21.163Z,23.40
2023-05-21T07:01:21.221Z,23.40
2023-05-21T07:02:21.286Z,23.40
2023-05-21T07:03:21.456Z,23.40
2023-05-21T07:04:21.357Z,23.39
2023-05-21T07:05:22.244Z,23.44
2023-05-21T07:06:21.273Z,23.43
2023-05-21T07:07:22.444Z,23.42
2023-05-21T07:08:21.333Z,23.42
2023-05-21T07:09:21.333Z,23.47
2023-05-21T07:10:21.535Z,23.47
2023-05-21T07:11:21.588Z,23.46
2023-05-21T07:12:21.550Z,23.49
2023-05-21T07:13:21.384Z,23.47
2023-05-21T07:14:22.405Z,23.49
2023-05-21T07:15:21.418Z,23.47
2023-05-21T07:16:22.634Z,23.52
2023-05-21T07:17:22.642Z,23.50
2023-05-21T07:18:22.505Z,23.50
2023-05-21T07:19:21.681Z,23.52
2023-05-21T07:20:21.556Z,23.53
2023-05-21T07:21:21.551Z,23.56
2023-05-21T07:22:21.602Z,23.54
2023-05-21T07:23:21.517Z,23.56
2023-05-21T07:24:22.717Z,23.56
2023-05-21T07:25:21.787Z,23.56
2023-05-21T07:26:21.614Z,23.58
2023-05-21T07:27:25.620Z,23.57
2023-05-21T07:28:22.566Z,23.61
2023-05-21T07:29:22.568Z,23.57
2023-05-21T07:30:21.550Z,23.60
2023-05-21T07:31:21.580Z,23.60
2023-05-21T07:32:21.714Z,23.63
2023-05-21T07:33:22.546Z,23.63
2023-05-21T07:34:22.753Z,23.64
2023-05-21T07:35:21.497Z,23.65
2023-05-21T07:36:21.641Z,23.65
2023-05-21T07:37:21.561Z,23.67
2023-05-21T07:38:21.498Z,23.65
2023-05-21T07:39:22.497Z,23.65
2023-05-21T07:40:21.466Z,23.68
2023-05-21T07:41:21.467Z,23.67
2023-05-21T07:42:21.687Z,23.68
2023-05-21T07:43:21.618Z,23.72
2023-05-21T07:44:21.481Z,23.72
2023-05-21T07:45:21.511Z,23.72
2023-05-21T07:46:21.560Z,23.74
2023-05-21T07:47:21.452Z,23.72
2023-05-21T07:48:21.706Z,23.75
2023-05-21T07:49:22.560Z,23.77
2023-05-21T07:50:22.459Z,23.75
2023-05-21T07:51:22.570Z,23.78
2023-05-21T07:52:21.461Z,23.80
2023-05-21T07:53:22.394Z,23.77
2023-05-21T07:54:21.373Z,23.78
2023-05-21T07:55:21.496Z,23.80
2023-05-21T07:56:22.365Z,23.80
2023-05-21T07:57:22.389Z,23.78
2023-05-21T07:58:21.455Z,23.84
2023-05-21T07:59:21.343Z,23.82
2023-05-21T08:00:22.416Z,23.84
2023-05-21T08:01:21.322Z,23.87
2023-05-21T08:02:22.501Z,23.85
2023-05-21T08:03:21.381Z,23.87
2023-05-21T08:04:21.455Z,23.85
2023-05-21T08:05:22.453Z,23.88
2023-05-21T08:06:21.283Z,23.89
2023-05-21T08:07:22.435Z,23.89
2023-05-21T08:08:21.262Z,23.91
2023-05-21T08:09:22.359Z,23.92
2023-05-21T08:10:21.288Z,23.92
2023-05-21T08:11:21.269Z,23.95
2023-05-21T08:12:21.245Z,23.94
2023-05-21T08:13:22.478Z,23.97
2023-05-21T08:14:22.388Z,23.95
2023-05-21T08:15:22.219Z,23.98
2023-05-21T08:16:21.297Z,23.95
2023-05-21T08:17:21.306Z,23.95
2023-05-21T08:18:22.258Z,23.98
2023-05-21T08:19:21.235Z,23.99
2023-05-21T08:20:22.245Z,23.98
2023-05-21T08:21:21.264Z,23.98
2023-05-21T08:22:21.201Z,23.99
2023-05-21T08:23:21.412Z,24.01
2023-05-21T08:24:22.276Z,23.99
2023-05-21T08:25:22.400Z,23.99
2023-05-21T08:26:21.133Z,24.01
2023-05-21T08:27:21.150Z,24.02
2023-05-21T08:28:21.137Z,24.05
2023-05-21T08:29:21.150Z,24.04
2023-05-21T08:30:21.204Z,24.06
2023-05-21T08:31:22.241Z,24.05
2023-05-21T08:32:21.174Z,24.06
2023-05-21T08:33:21.586Z,24.08
2023-05-21T08:34:22.116Z,24.09
2023-05-21T08:35:21.269Z,24.06
2023-05-21T08:36:22.177Z,24.08
2023-05-21T08:37:21.114Z,24.11
2023-05-21T08:38:22.075Z,24.12
2023-05-21T08:39:21.052Z,24.11
2023-05-21T08:40:21.191Z,24.13
2023-05-21T08:41:21.189Z,24.12
2023-05-21T08:42:32.773Z,24.15
2023-05-21T08:43:22.018Z,24.17
2023-05-21T08:44:22.153Z,24.15
2023-05-21T08:45:21.016Z,24.17
2023-05-21T08:46:22.258Z,24.17
2023-05-21T08:47:21.099Z,24.20
2023-05-21T08:48:21.035Z,24.19
2023-05-21T08:49:21.973Z,24.20
2023-05-21T08:50:21.177Z,24.15
2023-05-21T08:51:20.953Z,24.22
2023-05-21T08:52:20.945Z,24.23
2023-05-21T08:53:28.186Z,24.26
2023-05-21T08:54:22.013Z,24.23
2023-05-21T08:55:21.043Z,24.23
2023-05-21T08:56:21.063Z,24.26
2023-05-21T08:57:21.036Z,24.25
2023-05-21T08:58:21.982Z,24.29
2023-05-21T08:59:22.121Z,24.32
2023-05-21T09:00:21.042Z,24.34
2023-05-21T09:01:23.410Z,24.34
2023-05-21T09:02:21.976Z,24.34
2023-05-21T09:03:21.001Z,24.39
2023-05-21T09:04:22.164Z,24.37
2023-05-21T09:05:20.884Z,24.40
2023-05-21T09:06:21.985Z,24.40
2023-05-21T09:07:21.127Z,24.40
2023-05-21T09:08:20.888Z,24.42
2023-05-21T09:09:20.953Z,24.42
2023-05-21T09:10:21.814Z,24.39
2023-05-21T09:11:20.939Z,24.43
2023-05-21T09:12:20.825Z,24.42
2023-05-21T09:13:21.982Z,24.40
2023-05-21T09:14:20.857Z,24.43
2023-05-21T09:15:20.930Z,24.42
2023-05-21T09:16:20.877Z,24.44
2023-05-21T09:17:20.858Z,24.44
2023-05-21T09:18:21.960Z,24.47
2023-05-21T09:19:20.984Z,24.46
2023-05-21T09:20:20.767Z,24.43
2023-05-21T09:21:20.767Z,24.46
2023-05-21T09:22:21.852Z,24.47
2023-05-21T09:23:21.882Z,24.49
2023-05-21T09:24:20.963Z,24.49
2023-05-21T09:25:21.011Z,24.50
2023-05-21T09:26:21.288Z,24.50
2023-05-21T09:27:22.156Z,24.53
2023-05-21T09:28:22.467Z,24.43
2023-05-21T09:29:22.251Z,24.46
2023-05-21T09:30:25.983Z,24.49
2023-05-21T09:31:22.554Z,24.49
2023-05-21T09:32:22.332Z,24.50
2023-05-21T09:33:22.359Z,24.50
2023-05-21T09:34:22.419Z,24.53
2023-05-21T09:35:21.325Z,24.50
2023-05-21T09:36:22.356Z,24.51
2023-05-21T09:37:27.418Z,24.51
2023-05-21T09:38:22.358Z,24.53
2023-05-21T09:39:22.436Z,24.54
2023-05-21T09:40:21.257Z,24.50
2023-05-21T09:41:22.595Z,24.50
2023-05-21T09:42:21.356Z,24.53
2023-05-21T09:43:21.225Z,24.56
2023-05-21T09:44:21.345Z,24.53
2023-05-21T09:45:22.267Z,24.56
2023-05-21T09:46:22.217Z,24.56
2023-05-21T09:47:21.314Z,24.56
2023-05-21T09:48:22.473Z,24.54
2023-05-21T09:49:21.299Z,24.57
2023-05-21T09:50:21.234Z,24.59
2023-05-21T09:51:21.271Z,24.56
2023-05-21T09:52:21.201Z,24.59
2023-05-21T09:53:22.155Z,24.56
2023-05-21T09:54:22.223Z,24.56
2023-05-21T09:55:22.177Z,24.60
2023-05-21T09:56:22.158Z,24.54
2023-05-21T09:57:22.114Z,24.57
2023-05-21T09:58:22.271Z,24.59
2023-05-21T09:59:22.150Z,24.59
2023-05-21T10:00:21.225Z,24.60
2023-05-21T10:01:22.201Z,24.63
2023-05-21T10:02:21.474Z,24.61
2023-05-21T10:03:21.620Z,24.66
2023-05-21T10:04:21.418Z,24.61
2023-05-21T10:05:22.590Z,24.63
2023-05-21T10:06:22.548Z,24.61
2023-05-21T10:07:22.641Z,24.57
2023-05-21T10:08:22.536Z,24.63
2023-05-21T10:09:22.775Z,24.59
2023-05-21T10:10:22.899Z,24.60
2023-05-21T10:11:22.690Z,24.60
2023-05-21T10:12:22.864Z,24.61
2023-05-21T10:13:21.833Z,24.61
2023-05-21T10:14:21.817Z,24.63
2023-05-21T10:15:21.847Z,24.64
2023-05-21T10:16:21.944Z,24.63
2023-05-21T10:17:22.001Z,24.61
2023-05-21T10:18:22.123Z,24.59
2023-05-21T10:19:23.144Z,24.59
2023-05-21T10:20:22.084Z,24.61
2023-05-21T10:21:22.128Z,24.61
2023-05-21T10:22:22.408Z,24.59
2023-05-21T10:23:22.259Z,24.60
2023-05-21T10:24:22.418Z,24.63
2023-05-21T10:25:23.386Z,24.61
2023-05-21T10:26:22.364Z,24.64
2023-05-21T10:27:23.435Z,24.63
2023-05-21T10:28:23.461Z,24.64
2023-05-21T10:29:22.496Z,24.66
2023-05-21T10:30:22.486Z,24.64
2023-05-21T10:31:23.564Z,24.63
2023-05-21T10:32:22.729Z,24.61
2023-05-21T10:33:23.694Z,24.64
2023-05-21T10:34:22.812Z,24.64
2023-05-21T10:35:23.770Z,24.67
2023-05-21T10:36:22.841Z,24.63
2023-05-21T10:37:22.822Z,24.66
2023-05-21T10:38:22.874Z,24.67
2023-05-21T10:39:23.012Z,24.66
2023-05-21T10:40:23.966Z,24.61
2023-05-21T10:41:22.996Z,24.67
2023-05-21T10:42:23.081Z,24.63
2023-05-21T10:43:23.151Z,24.66
2023-05-21T10:44:24.157Z,24.64
2023-05-21T10:45:24.168Z,24.66
2023-05-21T10:46:23.212Z,24.70
2023-05-21T10:47:24.218Z,24.66
2023-05-21T10:48:24.243Z,24.70
2023-05-21T10:49:24.368Z,24.67
2023-05-21T10:50:24.318Z,24.66
2023-05-21T10:51:24.398Z,24.68
2023-05-21T10:52:24.633Z,24.68
2023-05-21T10:53:24.431Z,24.68
2023-05-21T10:54:24.544Z,24.68
2023-05-21T10:55:24.656Z,24.71
2023-05-21T10:56:23.646Z,24.70
2023-05-21T10:57:23.585Z,24.68
2023-05-21T10:58:24.658Z,24.68
2023-05-21T10:59:23.823Z,24.68
2023-05-21T11:00:23.752Z,24.68
2023-05-21T11:01:23.817Z,24.70
2023-05-21T11:02:24.879Z,24.71
2023-05-21T11:03:23.917Z,24.71
2023-05-21T11:04:23.789Z,24.71
2023-05-21T11:05:23.937Z,24.74
2023-05-21T11:06:24.879Z,24.74
2023-05-21T11:07:24.900Z,24.70
2023-05-21T11:08:24.030Z,24.72
2023-05-21T11:09:24.011Z,24.72
2023-05-21T11:10:24.110Z,24.74
2023-05-21T11:11:24.037Z,24.71
2023-05-21T11:12:24.047Z,24.77
2023-05-21T11:13:25.076Z,24.75
2023-05-21T11:14:24.120Z,24.74
2023-05-21T11:15:24.188Z,24.77
2023-05-21T11:16:25.228Z,24.75
2023-05-21T11:17:25.250Z,24.78
2023-05-21T11:18:25.252Z,24.77
2023-05-21T11:19:25.328Z,24.77
2023-05-21T11:20:24.333Z,24.77
2023-05-21T11:21:24.365Z,24.75
2023-05-21T11:22:24.368Z,24.78
2023-05-21T11:23:24.421Z,24.79
2023-05-21T11:24:24.430Z,24.78
2023-05-21T11:25:25.697Z,24.79
2023-05-21T11:26:24.611Z,24.78
2023-05-21T11:27:24.536Z,24.79
2023-05-21T11:28:25.607Z,24.77
2023-05-21T11:29:24.622Z,24.77
2023-05-21T11:30:24.677Z,24.79
2023-05-21T11:31:25.808Z,24.79
2023-05-21T11:32:24.807Z,24.78
2023-05-21T11:33:24.822Z,24.82
2023-05-21T11:34:24.775Z,24.79
2023-05-21T11:35:25.938Z,24.79
2023-05-21T11:36:24.852Z,24.75
2023-05-21T11:37:24.887Z,24.79
2023-05-21T11:38:24.898Z,24.79
2023-05-21T11:39:24.982Z,24.82
2023-05-21T11:40:25.049Z,24.84
2023-05-21T11:41:25.273Z,24.84
2023-05-21T11:42:25.039Z,24.81
2023-05-21T11:43:25.090Z,24.84
2023-05-21T11:44:26.164Z,24.87
2023-05-21T11:45:25.270Z,24.85
2023-05-21T11:46:25.209Z,24.87
2023-05-21T11:47:26.157Z,24.87
2023-05-21T11:48:27.986Z,24.87
2023-05-21T11:49:25.158Z,24.84
2023-05-21T11:50:26.189Z,24.87
2023-05-21T11:51:25.342Z,24.85
2023-05-21T11:52:25.371Z,24.87
2023-05-21T11:53:26.140Z,24.88
2023-05-21T11:54:26.200Z,24.85
2023-05-21T11:55:25.159Z,24.87
2023-05-21T11:56:26.297Z,24.88
2023-05-21T11:57:26.278Z,24.89
2023-05-21T11:58:25.118Z,24.87
2023-05-21T11:59:25.111Z,24.89
2023-05-21T12:00:25.074Z,24.89
2023-05-21T12:01:26.079Z,24.91
2023-05-21T12:02:26.192Z,24.89
2023-05-21T12:03:25.130Z,24.91
2023-05-21T12:04:25.050Z,24.89
2023-05-21T12:05:26.061Z,24.92
2023-05-21T12:06:25.250Z,24.91
2023-05-21T12:07:26.152Z,24.92
2023-05-21T12:08:26.095Z,24.94
2023-05-21T12:09:26.021Z,24.92
2023-05-21T12:10:26.004Z,24.95
2023-05-21T12:11:25.045Z,24.96
2023-05-21T12:12:24.986Z,24.96
2023-05-21T12:13:25.009Z,24.92
2023-05-21T12:14:25.065Z,24.99
2023-05-21T12:15:25.224Z,24.96
2023-05-21T12:16:25.049Z,24.98
2023-05-21T12:17:26.029Z,25.02
2023-05-21T12:18:25.936Z,24.99
2023-05-21T12:19:26.080Z,25.02
2023-05-21T12:20:25.056Z,25.02
2023-05-21T12:21:25.929Z,25.01
2023-05-21T12:22:25.018Z,25.02
2023-05-21T12:23:25.027Z,25.04
2023-05-21T12:24:24.944Z,25.04
2023-05-21T12:25:24.968Z,25.01
2023-05-21T12:26:25.016Z,25.06
2023-05-21T12:27:24.987Z,25.02
2023-05-21T12:28:25.048Z,25.05
2023-05-21T12:29:24.957Z,25.05
2023-05-21T12:30:24.866Z,25.05
2023-05-21T12:31:25.969Z,25.08
2023-05-21T12:32:24.869Z,25.06
2023-05-21T12:33:25.270Z,25.08
2023-05-21T12:34:24.975Z,25.06
2023-05-21T12:35:25.156Z,25.09
2023-05-21T12:36:24.875Z,25.05
2023-05-21T12:37:24.818Z,25.08
2023-05-21T12:38:26.036Z,25.08
2023-05-21T12:39:24.796Z,25.13
2023-05-21T12:40:24.956Z,25.08
2023-05-21T12:41:25.031Z,25.09
2023-05-21T12:42:25.806Z,25.09
2023-05-21T12:43:25.840Z,25.09
2023-05-21T12:44:24.773Z,25.08
2023-05-21T12:45:24.997Z,25.12
2023-05-21T12:46:24.764Z,25.09
2023-05-21T12:47:25.791Z,25.09
2023-05-21T12:48:24.790Z,25.12
2023-05-21T12:49:24.724Z,25.09
2023-05-21T12:50:25.805Z,25.12
2023-05-21T12:51:25.912Z,25.09
2023-05-21T12:52:25.731Z,25.11